Hauptseite
METAR-TAF:

METAR-TAF

Flughäfen :

Flughafen U-Tapao

Pattaya-Rayong, Thailand

Breite: 12-38N, Länge: 101-21E, Höhe: 3 m

Beobachtung

Neuester Wetterbericht von vor 38 Minuten, um 18:00 UTC
Wind 4 kt aus West
Temperatur 29°C
Luftfeuchtigkeit 84%
Luftdruck 1007 hPa
Sichtweite 10 km oder mehr
Leicht bewölkt in der Höhe von 2000 ft

METAR: VTBU 181800Z 26004KT 9999 FEW020 29/26 Q1007 NOSIG

Zeit: 01:38 (18:38 UTC)

Prognose

Neuester Wetterbericht von vor 1 Stunde und 38 Minuten, um 17:00 UTC
Gültige Prognose vom 18 um 18 UTC bis 19 um 18 UTC
Wind 4 kt aus Nord
Sichtweite 10 km oder mehr
Leicht bewölkt in der Höhe von 2000 ft
Übergehend zu
vom 19 um 01 UTC bis 19 um 02 UTC
Wind 8 kt aus Süd

TAF: VTBU 181700Z 1818/1918 35004KT 9999 FEW020 BECMG 1901/1902 18008KT

Wetterbeobachtungen und Prognosen von mehr als 4000 Flughäfen (METAR und TAF Bericht).

Die verfügbaren Stationen werden durch gelbe und rote Markierungen auf der Karte dargestellt.

Führen Sie die Maus auf sie, um den Namen der Station zu sehen.

Darauf klicken, um die Beobachtung von Wetterbeobachtungen und Prognosen zu sehen.

Um die Karte zu ändern : klicken Sie auf den grünen Tasten mit einem schwarzen Kreuz Zum Vergrößern, auf den grünen Button mit einem Gedankenstrich zu verkleinern, oder auf die grünen Pfeile für benachbarte Karten.


METAR-TAF: